createdAt,value
2018-12-17T00:00:59.823Z,-1.19
2018-12-17T00:11:19.081Z,-1.22
2018-12-17T00:21:39.760Z,-1.10
2018-12-17T00:31:59.353Z,-1.06
2018-12-17T00:42:19.408Z,-1.17
2018-12-17T00:52:38.641Z,-1.17
2018-12-17T01:02:59.270Z,-0.95
2018-12-17T01:13:19.166Z,-0.95
2018-12-17T01:23:38.693Z,-0.88
2018-12-17T01:33:58.634Z,-0.87
2018-12-17T01:44:18.401Z,-1.12
2018-12-17T01:54:37.814Z,-0.88
2018-12-17T02:04:57.724Z,-0.88
2018-12-17T02:15:23.351Z,-0.97
2018-12-17T02:25:43.398Z,-1.09
2018-12-17T02:36:02.971Z,-1.74
2018-12-17T02:46:22.571Z,-2.40
2018-12-17T02:56:41.762Z,-2.91
2018-12-17T03:07:01.373Z,-3.06
2018-12-17T03:17:21.345Z,-3.24
2018-12-17T03:27:41.042Z,-3.38
2018-12-17T03:38:02.062Z,-3.47
2018-12-17T03:48:21.577Z,-3.82
2018-12-17T03:58:41.026Z,-3.74
2018-12-17T04:09:00.612Z,-3.58
2018-12-17T04:19:20.529Z,-3.35
2018-12-17T04:29:39.893Z,-3.02
2018-12-17T04:39:59.609Z,-2.89
2018-12-17T04:50:18.972Z,-2.75
2018-12-17T05:00:38.066Z,-2.50
2018-12-17T05:10:57.308Z,-2.27
2018-12-17T05:21:17.047Z,-2.20
2018-12-17T05:31:36.753Z,-2.21
2018-12-17T05:41:56.042Z,-2.09
2018-12-17T05:52:16.345Z,-2.04
2018-12-17T06:02:35.456Z,-2.02
2018-12-17T06:12:55.791Z,-1.92
2018-12-17T06:23:16.383Z,-1.83
2018-12-17T06:33:37.165Z,-1.73
2018-12-17T06:43:57.569Z,-1.76
2018-12-17T06:54:18.441Z,-1.76
2018-12-17T07:04:37.922Z,-1.74
2018-12-17T07:14:57.932Z,-1.59
2018-12-17T07:25:17.512Z,-1.42
2018-12-17T07:35:37.201Z,-1.42
2018-12-17T07:45:56.930Z,-1.28
2018-12-17T07:56:16.685Z,-1.00
2018-12-17T08:06:37.115Z,-0.93
2018-12-17T08:16:56.494Z,-0.39
2018-12-17T08:27:15.992Z,-0.39
2018-12-17T08:37:35.787Z,-0.15
2018-12-17T08:47:55.334Z,-0.15
2018-12-17T08:58:14.816Z,0.37
2018-12-17T09:08:35.700Z,0.91
2018-12-17T09:18:56.019Z,1.16
2018-12-17T09:29:16.129Z,1.51
2018-12-17T09:39:35.727Z,1.41
2018-12-17T09:49:55.574Z,1.60
2018-12-17T10:00:15.474Z,1.84
2018-12-17T10:10:34.816Z,1.67
2018-12-17T10:20:54.306Z,1.21
2018-12-17T10:31:13.755Z,2.03
2018-12-17T10:41:33.678Z,2.76
2018-12-17T10:51:53.211Z,2.82
2018-12-17T11:02:16.676Z,2.78
2018-12-17T11:12:37.595Z,3.10
2018-12-17T11:22:56.789Z,3.15
2018-12-17T11:33:15.915Z,3.36
2018-12-17T11:43:35.906Z,3.10
2018-12-17T11:54:00.924Z,3.21
2018-12-17T12:04:22.727Z,2.84
2018-12-17T12:14:44.512Z,2.67
2018-12-17T12:25:06.307Z,2.66
2018-12-17T12:35:25.825Z,2.47
2018-12-17T12:45:48.117Z,2.62
2018-12-17T12:56:08.668Z,2.75
2018-12-17T13:06:29.719Z,2.80
2018-12-17T13:16:50.051Z,2.59
2018-12-17T13:27:11.035Z,2.23
2018-12-17T13:37:30.564Z,2.51
2018-12-17T13:47:51.081Z,2.28
2018-12-17T13:58:11.215Z,2.32
2018-12-17T14:08:30.790Z,2.11
2018-12-17T14:19:09.567Z,2.39
2018-12-17T14:29:29.712Z,2.45
2018-12-17T14:39:49.422Z,2.23
2018-12-17T14:50:09.493Z,2.13
2018-12-17T15:00:28.912Z,2.09
2018-12-17T15:10:48.423Z,1.98
2018-12-17T15:21:08.783Z,2.00
2018-12-17T15:31:28.429Z,1.90
2018-12-17T15:41:47.590Z,1.77
2018-12-17T15:52:07.820Z,1.52
2018-12-17T16:02:28.119Z,1.38
2018-12-17T16:12:47.548Z,1.26
2018-12-17T16:23:07.066Z,1.16
2018-12-17T16:33:29.999Z,1.06
2018-12-17T16:43:46.877Z,1.02
2018-12-17T16:54:07.072Z,1.00
2018-12-17T17:04:27.193Z,1.03
2018-12-17T17:14:48.334Z,0.93
2018-12-17T17:25:07.764Z,0.94
2018-12-17T17:35:29.007Z,0.93
2018-12-17T17:45:49.233Z,0.93
2018-12-17T17:56:09.889Z,0.91
2018-12-17T18:06:29.910Z,0.92
2018-12-17T18:16:50.282Z,0.92
2018-12-17T18:27:11.512Z,0.86
2018-12-17T18:37:34.253Z,0.89
2018-12-17T18:47:53.762Z,0.86
2018-12-17T18:58:14.777Z,0.60
2018-12-17T19:08:36.189Z,0.63
2018-12-17T19:18:56.366Z,0.59
2018-12-17T19:29:15.904Z,0.66
2018-12-17T19:39:36.500Z,0.53
2018-12-17T19:49:56.821Z,0.54
2018-12-17T20:00:18.698Z,0.52
2018-12-17T20:10:39.462Z,0.37
2018-12-17T20:20:59.504Z,0.15
2018-12-17T20:31:20.519Z,0.10
2018-12-17T20:41:41.045Z,-0.02
2018-12-17T20:52:02.869Z,-0.38
2018-12-17T21:02:22.182Z,-0.38
2018-12-17T21:12:43.342Z,-0.46
2018-12-17T21:23:04.409Z,-0.42
2018-12-17T21:33:24.034Z,-0.27
2018-12-17T21:43:44.592Z,-0.18
2018-12-17T21:54:04.131Z,-0.43
2018-12-17T22:04:24.410Z,-0.20
2018-12-17T22:14:46.212Z,-0.02
2018-12-17T22:25:05.996Z,0.16
2018-12-17T22:35:26.075Z,0.08
2018-12-17T22:45:45.708Z,-0.03
2018-12-17T22:56:05.439Z,0.10
2018-12-17T23:06:25.909Z,0.29
2018-12-17T23:17:22.119Z,0.27
2018-12-17T23:27:48.597Z,0.48
2018-12-17T23:38:08.233Z,0.51
2018-12-17T23:48:28.405Z,0.87
2018-12-17T23:58:47.811Z,1.42
